Time;durP1;ratioP1;P1;durP2;ratioP2;P2;SDS_P1;SDS_P2;PMS_P1;PMS_P2;Temp;Humidity;BMP_temperature;BMP_pressure;BME280_temperature;BME280_humidity;BME280_pressure;Samples;Min_cycle;Max_cycle;Signal;HPM_P1;HPM_P2
2022/07/03 00:01:40;;;;;;;4.37;4.07;;;;;;;13.12;100.00;97363.22;4983160;28;20241;-64
2022/07/03 00:04:08;;;;;;;4.73;4.43;;;;;;;13.10;100.00;97358.09;4972539;28;20941;-64
2022/07/03 00:06:36;;;;;;;5.40;4.90;;;;;;;13.07;100.00;97366.47;4967011;28;21014;-64
2022/07/03 00:09:06;;;;;;;4.20;3.90;;;;;;;13.07;100.00;97358.47;4912362;28;20218;-63
2022/07/03 00:11:34;;;;;;;4.20;4.00;;;;;;;12.95;100.00;97352.88;4977302;28;20417;-64
2022/07/03 00:14:04;;;;;;;4.77;4.47;;;;;;;12.86;100.00;97357.53;4962460;28;20682;-62
2022/07/03 00:16:33;;;;;;;4.57;4.30;;;;;;;12.84;100.00;97356.09;4972404;28;20668;-62
2022/07/03 00:19:01;;;;;;;4.30;4.10;;;;;;;12.87;100.00;97353.03;4979181;28;20280;-61
2022/07/03 00:21:32;;;;;;;4.87;4.47;;;;;;;12.99;100.00;97354.13;4963457;28;20445;-65
2022/07/03 00:24:04;;;;;;;4.63;4.33;;;;;;;13.03;100.00;97351.91;4941045;28;20209;-62
2022/07/03 00:26:35;;;;;;;5.10;4.77;;;;;;;13.00;100.00;97353.13;4975221;28;20454;-61
2022/07/03 00:29:06;;;;;;;5.10;4.80;;;;;;;12.88;100.00;97347.53;4980185;28;20208;-64
2022/07/03 00:31:34;;;;;;;4.27;4.07;;;;;;;12.81;100.00;97356.47;4963312;28;20213;-65
2022/07/03 00:34:03;;;;;;;4.87;4.57;;;;;;;12.89;100.00;97353.66;4982279;28;20426;-65
2022/07/03 00:36:38;;;;;;;4.47;4.20;;;;;;;12.84;100.00;97348.13;4961543;28;20423;-61
2022/07/03 00:39:06;;;;;;;5.07;4.73;;;;;;;12.85;100.00;97349.75;4937327;28;20323;-62
2022/07/03 00:41:36;;;;;;;4.93;4.53;;;;;;;12.89;100.00;97356.31;4980739;28;20403;-61
2022/07/03 00:44:06;;;;;;;5.17;4.80;;;;;;;12.80;100.00;97346.88;4975992;28;20204;-64
2022/07/03 00:46:38;;;;;;;5.30;4.90;;;;;;;12.84;100.00;97353.44;4960820;28;20573;-63
2022/07/03 00:49:07;;;;;;;4.73;4.43;;;;;;;12.79;100.00;97348.69;4974823;28;20686;-62
2022/07/03 00:51:40;;;;;;;4.90;4.50;;;;;;;12.78;100.00;97351.56;4961779;28;20681;-63
2022/07/03 00:54:10;;;;;;;5.17;4.60;;;;;;;12.93;100.00;97344.28;4937737;28;20537;-62
2022/07/03 00:56:40;;;;;;;5.77;5.27;;;;;;;12.77;100.00;97345.41;4977904;28;20753;-64
2022/07/03 00:59:10;;;;;;;4.50;4.30;;;;;;;12.73;100.00;97349.47;4977912;28;20264;-62
2022/07/03 01:01:40;;;;;;;4.80;4.50;;;;;;;12.66;100.00;97349.41;4958155;28;20921;-64
2022/07/03 01:04:22;;;;;;;5.03;4.63;;;;;;;12.59;100.00;97351.19;4980613;28;20320;-62
2022/07/03 01:06:54;;;;;;;4.70;4.40;;;;;;;12.59;100.00;97348.53;4979765;28;20228;-62
2022/07/03 01:09:38;;;;;;;4.70;4.40;;;;;;;12.56;100.00;97346.28;4929125;28;20303;-62
2022/07/03 01:12:13;;;;;;;5.13;4.80;;;;;;;12.49;100.00;97345.41;4985099;28;20828;-62
2022/07/03 01:14:50;;;;;;;4.73;4.43;;;;;;;12.46;100.00;97343.94;4983093;28;20659;-64
2022/07/03 01:17:25;;;;;;;5.00;4.70;;;;;;;12.39;100.00;97338.59;4969348;28;20225;-62
2022/07/03 01:19:59;;;;;;;4.93;4.63;;;;;;;12.34;100.00;97333.03;4982558;28;20486;-64
2022/07/03 01:22:31;;;;;;;5.10;4.80;;;;;;;12.36;100.00;97338.97;4978501;28;20877;-64
2022/07/03 01:25:18;;;;;;;7.20;5.07;;;;;;;12.60;100.00;97328.91;4924045;28;20254;-64
2022/07/03 01:28:10;;;;;;;5.30;5.00;;;;;;;12.49;100.00;97316.97;4984034;28;20293;-63
2022/07/03 01:30:41;;;;;;;5.63;5.00;;;;;;;12.43;100.00;97315.09;4926780;28;20465;-65
2022/07/03 01:33:10;;;;;;;5.70;5.30;;;;;;;12.35;100.00;97313.41;4967872;28;22771;-65
2022/07/03 01:35:40;;;;;;;5.97;5.57;;;;;;;12.49;100.00;97309.00;4980323;28;20213;-65
2022/07/03 01:38:10;;;;;;;5.53;5.13;;;;;;;12.48;100.00;97307.34;4967262;28;20452;-65
2022/07/03 01:40:40;;;;;;;5.20;4.90;;;;;;;12.53;100.00;97309.44;4976482;28;20506;-65
2022/07/03 01:43:12;;;;;;;6.07;5.57;;;;;;;12.55;100.00;97313.56;4980150;28;20201;-65
2022/07/03 01:45:43;;;;;;;6.00;5.60;;;;;;;12.53;100.00;97318.25;4931420;28;21172;-63
2022/07/03 01:48:12;;;;;;;6.30;5.70;;;;;;;12.55;100.00;97329.53;4982294;28;20412;-65
2022/07/03 01:50:42;;;;;;;5.50;5.20;;;;;;;12.41;100.00;97323.28;4980694;28;20399;-64
2022/07/03 01:53:11;;;;;;;6.10;5.70;;;;;;;12.43;100.00;97317.75;4980965;28;20296;-64
2022/07/03 01:55:41;;;;;;;6.10;5.70;;;;;;;12.26;100.00;97327.81;4960427;28;20240;-65
2022/07/03 01:58:11;;;;;;;5.53;5.20;;;;;;;12.27;100.00;97324.16;4980577;28;20237;-63
2022/07/03 02:00:43;;;;;;;6.20;5.60;;;;;;;12.11;100.00;97326.06;4980539;28;20614;-64
2022/07/03 02:03:11;;;;;;;5.80;5.50;;;;;;;12.10;100.00;97327.09;4935202;28;20290;-65
2022/07/03 02:05:43;;;;;;;5.53;5.23;;;;;;;12.02;100.00;97327.22;4978789;28;20283;-65
2022/07/03 02:08:28;;;;;;;5.40;5.10;;;;;;;11.85;100.00;97321.31;4979728;28;20225;-65
2022/07/03 02:11:12;;;;;;;5.73;5.33;;;;;;;11.78;100.00;97329.19;4974820;28;20236;-64
2022/07/03 02:13:52;;;;;;;6.20;5.80;;;;;;;11.69;100.00;97333.78;4974051;28;20271;-65
2022/07/03 02:16:23;;;;;;;5.70;5.17;;;;;;;11.75;100.00;97337.53;4970904;28;20255;-63
2022/07/03 02:18:58;;;;;;;5.83;5.43;;;;;;;11.79;100.00;97330.03;4957335;28;20209;-64
2022/07/03 02:21:29;;;;;;;5.57;5.03;;;;;;;11.64;100.00;97335.38;4979498;28;20216;-61
2022/07/03 02:24:07;;;;;;;6.60;5.20;;;;;;;11.56;100.00;97331.00;4957342;28;20212;-63
2022/07/03 02:26:42;;;;;;;5.67;5.30;;;;;;;11.53;100.00;97329.53;4960423;28;20374;-65
2022/07/03 02:29:14;;;;;;;4.73;4.43;;;;;;;11.43;100.00;97323.69;4984722;28;20209;-65
2022/07/03 02:31:45;;;;;;;5.60;5.30;;;;;;;11.35;100.00;97329.91;4929499;28;20748;-63
2022/07/03 02:34:17;;;;;;;6.17;5.77;;;;;;;11.35;100.00;97321.97;4981706;28;20230;-60
2022/07/03 02:36:48;;;;;;;5.97;5.47;;;;;;;11.37;100.00;97322.63;4980875;28;20224;-63
2022/07/03 02:39:24;;;;;;;5.40;4.97;;;;;;;11.42;100.00;97317.59;4980480;28;20201;-61
2022/07/03 02:41:59;;;;;;;5.13;4.83;;;;;;;11.26;100.00;97326.56;4953514;28;20209;-65
2022/07/03 02:44:33;;;;;;;5.57;5.17;;;;;;;11.16;100.00;97318.06;4978675;28;20311;-63
2022/07/03 02:47:04;;;;;;;5.20;4.80;;;;;;;11.15;100.00;97317.25;4975896;28;20229;-62
2022/07/03 02:49:44;;;;;;;4.73;4.33;;;;;;;11.09;100.00;97323.28;4951874;28;20209;-64
2022/07/03 02:52:25;;;;;;;6.30;5.80;;;;;;;11.10;100.00;97319.63;4981712;28;20252;-62
2022/07/03 02:54:54;;;;;;;6.60;6.10;;;;;;;11.04;100.00;97320.38;4977215;28;20556;-62
2022/07/03 02:57:23;;;;;;;5.10;4.70;;;;;;;11.11;100.00;97323.09;4954217;28;20685;-61
2022/07/03 02:59:56;;;;;;;5.53;5.20;;;;;;;11.19;100.00;97325.66;4978663;28;20213;-64
2022/07/03 03:02:43;;;;;;;5.00;4.70;;;;;;;11.06;100.00;97321.00;4979140;28;20872;-65
2022/07/03 03:05:15;;;;;;;5.03;4.73;;;;;;;11.07;100.00;97314.69;4894369;28;20288;-62
2022/07/03 03:08:01;;;;;;;5.80;5.40;;;;;;;11.03;100.00;97318.72;4938398;28;20715;-62
2022/07/03 03:10:29;;;;;;;5.93;5.53;;;;;;;10.90;100.00;97321.16;4940987;28;20208;-65
2022/07/03 03:13:05;;;;;;;5.47;4.97;;;;;;;10.88;100.00;97326.69;4916098;28;20214;-63
2022/07/03 03:15:35;;;;;;;4.90;4.60;;;;;;;10.91;100.00;97333.41;4938327;28;20391;-64
2022/07/03 03:18:07;;;;;;;6.53;6.03;;;;;;;10.91;100.00;97334.25;4932791;28;20867;-62
2022/07/03 03:20:36;;;;;;;5.63;5.30;;;;;;;10.95;100.00;97340.00;4919031;28;20489;-63
2022/07/03 03:23:18;;;;;;;5.93;5.43;;;;;;;10.94;100.00;97344.50;4940112;28;20221;-62
2022/07/03 03:25:46;;;;;;;5.93;5.50;;;;;;;10.89;100.00;97348.69;4943049;28;20254;-63
2022/07/03 03:28:15;;;;;;;5.77;5.43;;;;;;;10.90;100.00;97340.56;4915832;28;20222;-62
2022/07/03 03:30:45;;;;;;;5.37;5.07;;;;;;;10.93;100.00;97337.56;4942546;28;20559;-65
2022/07/03 03:33:13;;;;;;;5.90;5.40;;;;;;;10.94;100.00;97346.31;4903227;28;20258;-62
2022/07/03 03:35:42;;;;;;;5.50;5.10;;;;;;;10.86;100.00;97347.25;4934428;28;20282;-64
2022/07/03 03:38:11;;;;;;;6.03;5.53;;;;;;;10.84;100.00;97344.75;4867601;28;20222;-64
2022/07/03 03:40:39;;;;;;;5.13;4.73;;;;;;;10.76;100.00;97344.00;4930789;28;20262;-62
2022/07/03 03:43:07;;;;;;;6.87;5.73;;;;;;;10.74;100.00;97352.16;4921163;28;20202;-63
2022/07/03 03:45:36;;;;;;;5.97;5.57;;;;;;;10.78;100.00;97357.91;4924730;28;20222;-63
2022/07/03 03:48:07;;;;;;;5.30;4.93;;;;;;;10.79;100.00;97348.94;4911819;28;20566;-62
2022/07/03 03:50:35;;;;;;;6.13;5.63;;;;;;;10.81;100.00;97355.72;4944248;28;20278;-64
2022/07/03 03:53:03;;;;;;;5.70;5.30;;;;;;;10.83;100.00;97356.38;4899675;28;20214;-62
2022/07/03 03:55:32;;;;;;;5.63;5.13;;;;;;;10.87;100.00;97359.50;4944236;28;20214;-62
2022/07/03 03:58:01;;;;;;;5.97;5.50;;;;;;;10.90;100.00;97360.94;4928941;28;20726;-61
2022/07/03 04:00:30;;;;;;;5.47;5.13;;;;;;;10.97;100.00;97352.09;4934712;28;20787;-64
2022/07/03 04:02:58;;;;;;;6.23;5.83;;;;;;;11.05;100.00;97356.47;4922041;28;20222;-62
2022/07/03 04:05:28;;;;;;;5.87;5.20;;;;;;;11.15;100.00;97353.53;4976875;28;20943;-62
2022/07/03 04:07:58;;;;;;;5.47;5.07;;;;;;;11.19;100.00;97359.31;4926866;28;20488;-64
2022/07/03 04:10:26;;;;;;;6.33;5.83;;;;;;;11.21;100.00;97352.00;4975032;28;20724;-64
2022/07/03 04:12:54;;;;;;;5.37;4.97;;;;;;;11.37;100.00;97349.16;4976322;28;20205;-62
2022/07/03 04:15:23;;;;;;;6.40;5.83;;;;;;;11.40;100.00;97350.59;4958262;28;20210;-64
2022/07/03 04:17:52;;;;;;;5.83;5.43;;;;;;;11.50;100.00;97352.97;4952750;28;20486;-61
2022/07/03 04:20:20;;;;;;;6.03;5.63;;;;;;;11.58;100.00;97358.16;4980168;28;20205;-65
2022/07/03 04:22:50;;;;;;;5.93;5.40;;;;;;;11.65;100.00;97359.06;4975521;28;20268;-62
2022/07/03 04:25:18;;;;;;;6.03;5.63;;;;;;;11.96;100.00;97350.00;4946503;28;20772;-64
2022/07/03 04:27:47;;;;;;;6.93;5.80;;;;;;;12.18;100.00;97352.72;4973121;28;20229;-62
2022/07/03 04:30:35;;;;;;;6.27;5.87;;;;;;;12.20;100.00;97352.50;4927217;28;20611;-65
2022/07/03 04:33:04;;;;;;;5.57;5.17;;;;;;;12.30;100.00;97361.81;4956093;28;20424;-63
2022/07/03 04:35:32;;;;;;;6.10;5.70;;;;;;;12.44;100.00;97353.94;4955455;28;20212;-63
2022/07/03 04:38:02;;;;;;;6.30;5.70;;;;;;;12.58;100.00;97345.06;4946276;28;20233;-64
2022/07/03 04:40:30;;;;;;;10.37;6.23;;;;;;;12.50;100.00;97349.69;4914303;28;20983;-64
2022/07/03 04:42:58;;;;;;;5.60;5.30;;;;;;;12.79;100.00;97353.19;4953365;28;20331;-64
2022/07/03 04:45:27;;;;;;;6.07;5.67;;;;;;;12.95;100.00;97349.41;4950305;28;20517;-63
2022/07/03 04:47:55;;;;;;;5.53;5.23;;;;;;;13.20;100.00;97357.75;4967997;28;20277;-61
2022/07/03 04:50:23;;;;;;;5.83;5.50;;;;;;;13.31;100.00;97351.06;4951790;28;20367;-63
2022/07/03 04:52:52;;;;;;;5.93;5.50;;;;;;;13.34;100.00;97358.63;4983182;28;20276;-64
2022/07/03 04:55:21;;;;;;;6.50;6.00;;;;;;;13.43;100.00;97343.34;4911015;28;20228;-61
2022/07/03 04:57:49;;;;;;;17.33;15.90;;;;;;;13.46;100.00;97346.44;4982413;28;20224;-62
2022/07/03 05:00:18;;;;;;;6.87;6.40;;;;;;;13.60;100.00;97343.81;4952665;28;20206;-62
2022/07/03 05:02:46;;;;;;;7.17;6.67;;;;;;;13.86;100.00;97367.06;4979445;28;20225;-63
2022/07/03 05:05:15;;;;;;;6.00;5.50;;;;;;;14.13;100.00;97371.63;4953600;28;20275;-60
2022/07/03 05:07:44;;;;;;;5.90;5.50;;;;;;;14.31;100.00;97368.38;4976568;28;20501;-62
2022/07/03 05:10:12;;;;;;;5.73;5.37;;;;;;;14.50;100.00;97364.09;4948261;28;20513;-62
2022/07/03 05:12:42;;;;;;;5.70;5.30;;;;;;;14.61;100.00;97363.47;4970959;28;20589;-64
2022/07/03 05:15:11;;;;;;;5.67;5.37;;;;;;;14.76;100.00;97368.63;4957528;28;20221;-62
2022/07/03 05:17:39;;;;;;;6.10;5.50;;;;;;;14.93;100.00;97362.03;4979177;28;20426;-64
2022/07/03 05:22:56;;;;;;;5.50;5.10;;;;;;;15.17;100.00;97368.56;4978624;28;20201;-63
2022/07/03 05:25:24;;;;;;;6.07;5.57;;;;;;;15.29;100.00;97371.41;4977351;28;20698;-65
2022/07/03 05:27:54;;;;;;;7.37;6.77;;;;;;;15.44;100.00;97368.50;4930775;28;20233;-65
2022/07/03 05:30:23;;;;;;;6.70;6.20;;;;;;;15.66;100.00;97363.69;4952703;28;20197;-63
2022/07/03 05:32:52;;;;;;;5.63;5.23;;;;;;;15.74;100.00;97366.09;4976639;28;20277;-64
2022/07/03 05:35:21;;;;;;;5.63;5.30;;;;;;;15.82;100.00;97361.53;4959656;28;20964;-62
2022/07/03 05:37:49;;;;;;;6.23;5.73;;;;;;;16.31;100.00;97356.56;4982931;28;20469;-63
2022/07/03 05:40:18;;;;;;;5.30;5.00;;;;;;;16.22;100.00;97361.34;4979308;28;20715;-64
2022/07/03 05:42:46;;;;;;;5.20;4.90;;;;;;;16.13;100.00;97359.97;4932540;28;20439;-64
2022/07/03 05:45:16;;;;;;;5.77;5.37;;;;;;;16.52;100.00;97359.91;4926857;28;20252;-63
2022/07/03 05:47:44;;;;;;;5.30;5.00;;;;;;;16.68;100.00;97366.56;4980140;28;20225;-64
2022/07/03 05:50:12;;;;;;;4.80;4.60;;;;;;;16.68;100.00;97372.72;4982959;28;20260;-65
2022/07/03 05:52:41;;;;;;;4.50;4.30;;;;;;;16.81;100.00;97361.09;4949276;28;20212;-65
2022/07/03 05:55:09;;;;;;;5.07;4.77;;;;;;;16.99;100.00;97367.53;4957492;28;20895;-63
2022/07/03 05:57:38;;;;;;;4.70;4.40;;;;;;;17.33;100.00;97365.34;4977697;28;20382;-64
2022/07/03 06:00:07;;;;;;;4.10;3.90;;;;;;;17.49;100.00;97364.75;4984016;28;20217;-64
2022/07/03 06:02:37;;;;;;;5.07;4.57;;;;;;;17.55;100.00;97370.25;4936656;28;20921;-61
2022/07/03 06:05:06;;;;;;;4.03;3.80;;;;;;;17.69;100.00;97365.56;4986060;28;20241;-63
2022/07/03 06:07:34;;;;;;;4.20;4.00;;;;;;;17.81;100.00;97369.09;4982392;28;20916;-64
2022/07/03 06:10:04;;;;;;;4.03;3.77;;;;;;;17.94;100.00;97363.56;4981743;28;20228;-65
2022/07/03 06:12:32;;;;;;;4.10;3.90;;;;;;;18.02;100.00;97364.34;4977633;28;20681;-63
2022/07/03 06:15:00;;;;;;;3.90;3.70;;;;;;;18.18;100.00;97369.03;4984015;28;20204;-63
2022/07/03 06:17:29;;;;;;;4.10;3.83;;;;;;;17.92;100.00;97371.00;4930209;28;20268;-62
2022/07/03 06:19:59;;;;;;;3.93;3.73;;;;;;;18.22;100.00;97372.91;4977727;28;20212;-61
2022/07/03 06:22:28;;;;;;;3.63;3.43;;;;;;;18.45;100.00;97365.13;4960408;28;20575;-63
2022/07/03 06:24:56;;;;;;;3.53;3.30;;;;;;;18.62;100.00;97370.66;4980469;28;20337;-61
2022/07/03 06:27:24;;;;;;;3.60;3.30;;;;;;;18.77;100.00;97362.97;4960844;28;20486;-64
2022/07/03 06:29:52;;;;;;;3.60;3.40;;;;;;;18.90;100.00;97366.47;4981368;28;20594;-60
2022/07/03 06:32:21;;;;;;;3.57;3.37;;;;;;;18.87;100.00;97362.38;4939401;28;20229;-64
2022/07/03 06:34:49;;;;;;;13.47;12.10;;;;;;;18.82;100.00;97362.28;4981013;28;20216;-62
2022/07/03 06:37:20;;;;;;;4.53;4.23;;;;;;;18.88;100.00;97365.91;4975306;28;20514;-64
2022/07/03 06:39:48;;;;;;;3.70;3.40;;;;;;;19.15;100.00;97358.22;4979533;28;20213;-64
2022/07/03 06:42:17;;;;;;;3.53;3.33;;;;;;;19.35;100.00;97367.78;4943963;28;20315;-61
2022/07/03 06:44:45;;;;;;;3.50;3.20;;;;;;;19.56;100.00;97360.13;4981292;28;20838;-61
2022/07/03 06:47:19;;;;;;;3.90;3.70;;;;;;;19.68;100.00;97358.22;4934825;28;20448;-64
2022/07/03 06:49:47;;;;;;;3.70;3.40;;;;;;;19.51;100.00;97360.84;4985788;28;20903;-64
2022/07/03 06:52:16;;;;;;;3.50;3.30;;;;;;;19.49;100.00;97357.56;4956766;28;20239;-64
2022/07/03 06:54:45;;;;;;;3.77;3.57;;;;;;;19.65;100.00;97362.22;4982208;28;20268;-60
2022/07/03 06:57:14;;;;;;;3.57;3.40;;;;;;;19.75;100.00;97358.91;4945299;28;20358;-64
2022/07/03 06:59:43;;;;;;;3.30;3.10;;;;;;;19.89;100.00;97359.44;4976644;28;20216;-61
2022/07/03 07:02:11;;;;;;;3.67;3.37;;;;;;;19.88;100.00;97368.53;4938953;28;20445;-65
2022/07/03 07:04:40;;;;;;;3.30;3.00;;;;;;;19.94;100.00;97362.25;4975745;28;20892;-62
2022/07/03 07:07:08;;;;;;;3.43;3.23;;;;;;;19.94;100.00;97362.25;4951958;28;20311;-62
2022/07/03 07:09:36;;;;;;;9.30;6.83;;;;;;;20.06;100.00;97366.75;4963155;28;20221;-64
2022/07/03 07:12:07;;;;;;;3.93;3.40;;;;;;;20.22;100.00;97371.34;4992133;28;20194;-62
2022/07/03 07:14:35;;;;;;;3.30;3.10;;;;;;;20.52;100.00;97374.84;4964556;28;20210;-62
2022/07/03 07:17:04;;;;;;;4.23;3.93;;;;;;;20.34;100.00;97371.28;4951588;28;20260;-62
2022/07/03 07:19:33;;;;;;;3.50;3.30;;;;;;;20.23;100.00;97366.81;4970089;28;20206;-64
2022/07/03 07:22:02;;;;;;;3.20;3.10;;;;;;;20.04;100.00;97364.31;4989261;28;20296;-62
2022/07/03 07:24:30;;;;;;;3.37;3.10;;;;;;;20.57;100.00;97358.75;4969932;28;20253;-63
2022/07/03 07:26:58;;;;;;;3.60;3.40;;;;;;;20.42;100.00;97366.56;4980778;28;20240;-60
2022/07/03 07:29:28;;;;;;;3.30;3.20;;;;;;;20.52;100.00;97367.56;4963248;28;20226;-62
2022/07/03 07:31:57;;;;;;;2.87;2.70;;;;;;;20.50;100.00;97356.22;4983088;28;20548;-62
2022/07/03 07:34:25;;;;;;;3.27;3.03;;;;;;;20.67;100.00;97350.84;4949437;28;20214;-63
2022/07/03 07:36:54;;;;;;;3.23;3.10;;;;;;;20.48;100.00;97358.34;4983198;28;20256;-61
2022/07/03 07:39:22;;;;;;;3.53;3.27;;;;;;;20.89;100.00;97360.06;4965023;28;20202;-64
2022/07/03 07:41:50;;;;;;;3.03;2.93;;;;;;;20.86;100.00;97355.19;4980367;28;20652;-59
2022/07/03 07:44:19;;;;;;;2.80;2.70;;;;;;;20.95;100.00;97354.53;4960740;28;21245;-62
2022/07/03 07:46:49;;;;;;;3.67;3.40;;;;;;;21.24;100.00;97353.56;4984634;28;20488;-61
2022/07/03 07:49:17;;;;;;;3.23;3.03;;;;;;;21.20;100.00;97353.25;4937417;28;20229;-65
2022/07/03 07:51:46;;;;;;;3.23;3.03;;;;;;;21.33;100.00;97348.56;4937494;28;20549;-64
2022/07/03 07:54:14;;;;;;;3.00;2.83;;;;;;;21.50;100.00;97351.22;4969974;28;20220;-62
2022/07/03 07:56:43;;;;;;;2.90;2.80;;;;;;;21.66;99.51;97350.34;4980946;28;20783;-63
2022/07/03 07:59:11;;;;;;;4.77;4.47;;;;;;;21.69;97.21;97349.84;4970658;28;20213;-65
2022/07/03 08:07:13;;;;;;;2.60;2.40;;;;;;;21.77;96.63;97347.75;4941998;28;20244;-63
2022/07/03 08:09:41;;;;;;;3.50;3.00;;;;;;;22.03;98.52;97346.16;4978079;28;20453;-63
2022/07/03 08:12:10;;;;;;;3.10;2.90;;;;;;;22.19;98.09;97344.44;4983925;28;20649;-63
2022/07/03 08:14:39;;;;;;;3.47;3.17;;;;;;;22.29;93.85;97349.09;4964290;28;20202;-64
2022/07/03 08:17:07;;;;;;;3.40;3.20;;;;;;;22.03;99.11;97345.34;4983406;28;20229;-65
2022/07/03 08:19:37;;;;;;;2.70;2.60;;;;;;;22.41;100.00;97341.66;4978990;28;20676;-63
2022/07/03 08:22:06;;;;;;;3.50;3.30;;;;;;;22.73;99.44;97342.75;4983833;28;20201;-65
2022/07/03 08:24:34;;;;;;;2.87;2.70;;;;;;;22.90;95.91;97349.88;4935051;28;20875;-63
2022/07/03 08:27:02;;;;;;;2.53;2.43;;;;;;;22.70;97.77;97338.66;4977139;28;20260;-64
2022/07/03 08:29:31;;;;;;;2.77;2.67;;;;;;;22.82;96.98;97341.19;4964526;28;20236;-63
2022/07/03 08:32:08;;;;;;;3.13;3.03;;;;;;;22.31;100.00;97341.56;4983659;28;20201;-65
2022/07/03 08:34:38;;;;;;;3.30;3.10;;;;;;;22.38;100.00;97335.97;4975061;28;20753;-64
2022/07/03 08:37:07;;;;;;;3.60;3.17;;;;;;;22.26;100.00;97338.81;4982711;28;20369;-65
2022/07/03 08:39:35;;;;;;;3.70;3.37;;;;;;;22.46;100.00;97335.50;4938583;28;20442;-65
2022/07/03 08:42:04;;;;;;;2.87;2.77;;;;;;;22.66;100.00;97334.06;4977662;28;20269;-65
2022/07/03 08:44:33;;;;;;;2.63;2.53;;;;;;;22.83;100.00;97337.41;4975910;28;20205;-62
2022/07/03 08:47:04;;;;;;;2.90;2.70;;;;;;;22.87;100.00;97329.59;4965834;28;20709;-63
2022/07/03 08:49:33;;;;;;;3.10;2.90;;;;;;;22.82;98.39;97330.38;4976691;28;20216;-63
2022/07/03 08:52:07;;;;;;;3.13;2.93;;;;;;;22.90;100.00;97337.19;4988284;28;20258;-66
2022/07/03 08:54:35;;;;;;;3.00;2.80;;;;;;;22.88;99.22;97333.94;4935488;28;20779;-63
2022/07/03 08:57:04;;;;;;;3.10;2.90;;;;;;;23.12;100.00;97328.13;4981362;28;20723;-65
2022/07/03 08:59:36;;;;;;;4.03;3.63;;;;;;;23.05;99.38;97341.03;4974974;28;20240;-62
2022/07/03 09:02:05;;;;;;;5.00;3.00;;;;;;;23.31;100.00;97323.13;4965906;28;20221;-65
2022/07/03 09:04:35;;;;;;;2.97;2.87;;;;;;;23.73;99.80;97329.50;4979348;28;20255;-63
2022/07/03 09:07:08;;;;;;;3.10;2.80;;;;;;;23.93;92.97;97331.44;4981049;28;20264;-65
2022/07/03 09:09:37;;;;;;;2.90;2.77;;;;;;;23.62;97.69;97333.25;4974306;28;20333;-66
2022/07/03 09:12:06;;;;;;;2.73;2.63;;;;;;;23.69;95.38;97333.81;4939725;28;20300;-64
2022/07/03 09:14:35;;;;;;;2.87;2.67;;;;;;;23.92;92.46;97327.09;4980118;28;20220;-64
2022/07/03 09:17:03;;;;;;;3.20;3.00;;;;;;;24.04;94.56;97326.06;4984663;28;20229;-62
2022/07/03 09:19:42;;;;;;;4.10;3.80;;;;;;;24.01;96.57;97327.44;4969302;28;20217;-63
2022/07/03 09:22:25;;;;;;;3.43;3.23;;;;;;;23.89;93.09;97319.53;4986396;28;20201;-65
2022/07/03 09:24:55;;;;;;;3.20;3.10;;;;;;;24.10;93.77;97314.97;4984764;28;20846;-64
2022/07/03 09:27:25;;;;;;;2.67;2.57;;;;;;;24.25;93.80;97306.06;4921539;28;20240;-63
2022/07/03 09:30:00;;;;;;;2.83;2.73;;;;;;;24.41;93.84;97314.19;4985682;28;20215;-63
2022/07/03 09:32:34;;;;;;;9.23;3.00;;;;;;;24.30;91.57;97316.09;4978236;28;20207;-65
2022/07/03 09:35:19;;;;;;;2.83;2.63;;;;;;;24.63;91.84;97311.22;4965665;28;20800;-66
2022/07/03 09:37:53;;;;;;;3.10;2.90;;;;;;;24.35;90.86;97304.44;4973468;28;20247;-66
2022/07/03 09:40:22;;;;;;;4.93;2.50;;;;;;;24.23;90.75;97305.53;4972836;28;20264;-66
2022/07/03 09:43:01;;;;;;;2.40;2.30;;;;;;;24.43;87.34;97299.31;4947917;28;20209;-63
2022/07/03 09:45:50;;;;;;;2.77;2.67;;;;;;;24.55;91.87;97292.78;4984110;28;20205;-66
2022/07/03 09:48:26;;;;;;;3.70;2.83;;;;;;;24.70;88.12;97286.53;4969433;28;20854;-65
2022/07/03 09:51:23;;;;;;;3.87;2.60;;;;;;;24.69;88.17;97288.44;4967214;28;20535;-66
2022/07/03 09:53:55;;;;;;;2.87;2.77;;;;;;;24.71;84.05;97293.59;4972431;28;20205;-65
2022/07/03 09:56:27;;;;;;;3.77;3.47;;;;;;;24.70;86.49;97295.50;4972696;28;20236;-67
2022/07/03 09:59:17;;;;;;;2.77;2.57;;;;;;;24.98;83.93;97295.19;4953629;28;20251;-65
2022/07/03 10:01:47;;;;;;;2.80;2.60;;;;;;;24.85;83.04;97297.41;4966409;28;20217;-66
2022/07/03 10:04:17;;;;;;;3.00;2.90;;;;;;;25.03;82.50;97295.16;4970333;28;20235;-64
2022/07/03 10:06:51;;;;;;;2.70;2.60;;;;;;;25.12;76.40;97288.09;4969712;28;20221;-65
2022/07/03 10:09:22;;;;;;;3.20;2.87;;;;;;;24.95;73.16;97284.91;4978008;28;20201;-65
2022/07/03 10:11:51;;;;;;;2.70;2.60;;;;;;;25.01;75.87;97278.38;4973163;28;20217;-63
2022/07/03 10:14:20;;;;;;;2.50;2.30;;;;;;;25.19;80.09;97281.56;4941037;28;20209;-64
2022/07/03 10:16:49;;;;;;;3.83;2.43;;;;;;;25.41;77.52;97284.72;4982618;28;20279;-66
2022/07/03 10:19:19;;;;;;;2.50;2.40;;;;;;;25.66;78.37;97280.31;4985140;28;20205;-64
2022/07/03 10:21:54;;;;;;;2.70;2.50;;;;;;;25.69;70.22;97276.19;4973894;28;20204;-65
2022/07/03 10:24:26;;;;;;;2.87;2.27;;;;;;;25.97;75.53;97276.56;4980050;28;20931;-66
2022/07/03 10:26:55;;;;;;;2.90;2.70;;;;;;;25.96;71.13;97272.25;4974614;28;20229;-63
2022/07/03 10:29:24;;;;;;;4.13;2.80;;;;;;;25.98;74.75;97284.44;4982385;28;20347;-64
2022/07/03 10:31:57;;;;;;;2.47;2.37;;;;;;;26.18;76.30;97277.25;4938930;28;21236;-64
2022/07/03 10:34:27;;;;;;;2.30;2.20;;;;;;;26.46;73.92;97276.75;4975496;28;20205;-63
2022/07/03 10:36:59;;;;;;;2.50;2.30;;;;;;;26.34;71.15;97267.09;4985549;28;20447;-65
2022/07/03 10:39:37;;;;;;;2.33;2.23;;;;;;;26.72;75.67;97267.28;4969942;28;20214;-65
2022/07/03 10:45:07;;;;;;;2.50;2.40;;;;;;;26.36;70.64;97261.38;4984710;28;20217;-64
2022/07/03 10:47:44;;;;;;;2.23;2.10;;;;;;;26.52;63.48;97260.13;4964051;28;20501;-65
2022/07/03 10:50:14;;;;;;;2.80;2.47;;;;;;;26.63;66.43;97268.19;4979508;28;20247;-64
2022/07/03 10:52:43;;;;;;;2.10;2.00;;;;;;;26.76;65.01;97264.81;4982821;28;20221;-70
2022/07/03 10:55:14;;;;;;;2.30;2.20;;;;;;;26.37;63.53;97263.81;4956425;28;20666;-61
2022/07/03 10:57:44;;;;;;;3.07;2.33;;;;;;;26.63;65.47;97252.69;4972661;28;20221;-63
2022/07/03 11:00:19;;;;;;;3.37;2.40;;;;;;;26.82;65.68;97266.38;4977385;28;20252;-62
2022/07/03 11:02:50;;;;;;;2.97;2.77;;;;;;;26.97;66.22;97259.16;4928328;28;20660;-60
2022/07/03 11:05:26;;;;;;;2.30;2.20;;;;;;;27.00;64.43;97248.53;4983207;28;20204;-65
2022/07/03 11:08:12;;;;;;;2.27;2.10;;;;;;;27.22;64.67;97246.38;4977306;28;20225;-64
2022/07/03 11:10:44;;;;;;;2.23;2.13;;;;;;;27.62;58.55;97244.22;4951263;28;20326;-62
2022/07/03 11:13:20;;;;;;;2.27;2.13;;;;;;;27.76;56.49;97251.66;4969391;28;20220;-61
2022/07/03 11:15:51;;;;;;;3.03;1.97;;;;;;;27.29;54.72;97244.09;4977921;28;20730;-60
2022/07/03 11:18:28;;;;;;;2.27;2.17;;;;;;;27.78;56.72;97244.00;4937265;28;20230;-64
2022/07/03 11:21:25;;;;;;;5.27;2.37;;;;;;;27.44;56.31;97238.44;4975944;28;20205;-61
2022/07/03 11:24:18;;;;;;;2.53;2.40;;;;;;;27.53;57.74;97226.94;4984968;28;20225;-64
2022/07/03 11:27:19;;;;;;;3.70;2.40;;;;;;;27.68;56.54;97223.19;4973929;28;20273;-62
2022/07/03 11:29:52;;;;;;;2.60;2.40;;;;;;;27.97;55.65;97219.47;4975723;28;20304;-61
2022/07/03 11:32:46;;;;;;;2.00;1.90;;;;;;;28.23;51.65;97219.09;4936704;28;20693;-62
2022/07/03 11:35:47;;;;;;;2.20;2.00;;;;;;;29.02;50.64;97211.94;4976279;28;20209;-63
2022/07/03 11:38:18;;;;;;;1.80;1.70;;;;;;;29.18;46.48;97210.50;4964237;28;20243;-63
2022/07/03 11:40:47;;;;;;;2.10;2.00;;;;;;;29.25;42.74;97207.34;4975103;28;20825;-63
2022/07/03 11:43:16;;;;;;;2.10;2.03;;;;;;;29.32;49.61;97212.38;4962293;28;21130;-61
2022/07/03 11:45:47;;;;;;;3.93;3.63;;;;;;;28.33;48.31;97209.94;4957376;28;20247;-59
2022/07/03 11:48:17;;;;;;;2.20;2.00;;;;;;;28.25;51.35;97205.97;4939292;28;20232;-63
2022/07/03 11:50:46;;;;;;;2.37;2.20;;;;;;;28.63;49.24;97197.66;4977172;28;20661;-61
2022/07/03 11:53:25;;;;;;;3.33;2.43;;;;;;;28.26;46.64;97194.78;4954670;28;22756;-63
2022/07/03 11:55:58;;;;;;;2.20;2.10;;;;;;;28.53;48.12;97186.97;4972524;28;20682;-64
2022/07/03 11:58:42;;;;;;;2.07;1.97;;;;;;;28.57;47.83;97196.16;4978918;28;20289;-63